Map

Track Data

SID SEASON NUMBER BASIN SUBBASIN NAME ISO_TIME NATURE LAT LON WMO_WIND WMO_PRES WMO_AGENCY TRACK_TYPE DIST2LAND LANDFALL IFLAG USA_AGENCY USA_ATCF_ID USA_LAT USA_LON USA_RECORD USA_STATUS USA_WIND USA_PRES USA_SSHS USA_R34_NE USA_R34_SE USA_R34_SW USA_R34_NW USA_R50_NE USA_R50_SE USA_R50_SW USA_R50_NW USA_R64_NE USA_R64_SE USA_R64_SW USA_R64_NW USA_POCI USA_ROCI USA_RMW USA_EYE TOKYO_LAT TOKYO_LON TOKYO_GRADE TOKYO_WIND TOKYO_PRES TOKYO_R50_DIR TOKYO_R50_LONG TOKYO_R50_SHORT TOKYO_R30_DIR TOKYO_R30_LONG TOKYO_R30_SHORT TOKYO_LAND CMA_LAT CMA_LON CMA_CAT CMA_WIND CMA_PRES HKO_LAT HKO_LON HKO_CAT HKO_WIND HKO_PRES NEWDELHI_LAT NEWDELHI_LON NEWDELHI_GRADE NEWDELHI_WIND NEWDELHI_PRES NEWDELHI_CI NEWDELHI_DP NEWDELHI_POCI REUNION_LAT REUNION_LON REUNION_TYPE REUNION_WIND REUNION_PRES REUNION_TNUM REUNION_CI REUNION_RMW REUNION_R34_NE REUNION_R34_SE REUNION_R34_SW REUNION_R34_NW REUNION_R50_NE REUNION_R50_SE REUNION_R50_SW REUNION_R50_NW REUNION_R64_NE REUNION_R64_SE REUNION_R64_SW REUNION_R64_NW BOM_LAT BOM_LON BOM_TYPE BOM_WIND BOM_PRES BOM_TNUM BOM_CI BOM_RMW BOM_R34_NE BOM_R34_SE BOM_R34_SW BOM_R34_NW BOM_R50_NE BOM_R50_SE BOM_R50_SW BOM_R50_NW BOM_R64_NE BOM_R64_SE BOM_R64_SW BOM_R64_NW BOM_ROCI BOM_POCI BOM_EYE BOM_POS_METHOD BOM_PRES_METHOD NADI_LAT NADI_LON NADI_CAT NADI_WIND NADI_PRES WELLINGTON_LAT WELLINGTON_LON WELLINGTON_WIND WELLINGTON_PRES DS824_LAT DS824_LON DS824_STAGE DS824_WIND DS824_PRES TD9636_LAT TD9636_LON TD9636_STAGE TD9636_WIND TD9636_PRES TD9635_LAT TD9635_LON TD9635_WIND TD9635_PRES TD9635_ROCI NEUMANN_LAT NEUMANN_LON NEUMANN_CLASS NEUMANN_WIND NEUMANN_PRES MLC_LAT MLC_LON MLC_CLASS MLC_WIND MLC_PRES USA_GUST BOM_GUST BOM_GUST_PER REUNION_GUST REUNION_GUST_PER USA_SEAHGT USA_SEARAD_NE USA_SEARAD_SE USA_SEARAD_SW USA_SEARAD_NW STORM_SPEED STORM_DIR
1975063S15168 1975 24 SP MM ALISON 1975-03-03 12:00:00 TS -15.4000 168.200 main 107 107 O________OO___ jtwc_sh SH231975 -15.4000 168.200 -1 -15.4000 168.200 TC -15.4000 168.200 4 23 95
1975063S15168 1975 24 SP MM ALISON 1975-03-03 15:00:00 TS -15.5007 169.392 main 193 193 P________PP___ SH231975 -15.5047 169.475 -1 -15.5047 169.475 TC -15.4925 169.227 4 21 95
1975063S15168 1975 24 SP MM ALISON 1975-03-03 18:00:00 TS -15.5951 170.381 main 288 288 O________OP___ jtwc_sh SH231975 -15.6000 170.500 -1 -15.6000 170.500 TC -15.5854 170.144 4 16 97
1975063S15168 1975 24 SP MM ALISON 1975-03-03 21:00:00 TS -15.6894 170.996 main 348 348 P________PP___ SH231975 -15.6915 171.075 -1 -15.6915 171.075 TC -15.6854 170.839 4 10 105
1975063S15168 1975 24 SP MM ALISON 1975-03-04 00:00:00 TS -15.8571 171.386 40 990 wellington main 387 374 O_______OOO_O_ jtwc_sh SH231975 -15.8000 171.200 -1 -16.2000 172.500 40 990 -15.8000 171.200 TC 65 -15.8000 171.200 4 -16.2000 172.500 TC 30 5 146
1975063S15168 1975 24 SP MM ALISON 1975-03-04 03:00:00 TS -16.0781 171.275 main 374 330 P_______PPP_P_ SH231975 -15.9425 170.963 -1 -16.4503 172.040 43 987 -15.9425 170.963 TC 65 -15.9345 171.157 4 -16.5353 171.995 TC 32 6 225
1975063S15168 1975 24 SP MM ALISON 1975-03-04 06:00:00 TS -16.3099 170.911 main 330 287 O_______POP_O_ jtwc_sh SH231975 -16.1000 170.500 -1 -16.6801 171.564 47 985 -16.1000 170.500 TC 65 -16.0843 170.803 4 -16.8000 171.500 TC 35 9 239
1975063S15168 1975 24 SP MM ALISON 1975-03-04 09:00:00 TS -16.5113 170.515 main 287 234 P_______PPP_P_ SH231975 -16.2499 170.115 -1 -16.8699 171.056 51 982 -16.2499 170.115 TC 65 -16.2418 170.273 4 -16.9448 171.015 TC 37 9 249
1975063S15168 1975 24 SP MM ALISON 1975-03-04 12:00:00 TS -16.6400 170.020 55 980 wellington main 234 181 O_______OOO_O_ jtwc_sh SH231975 -16.4000 169.700 -1 -17.0000 170.500 55 980 -16.4000 169.700 TC 65 -16.4000 169.700 4 -17.0000 170.500 TC 40 10 256
1975063S15168 1975 24 SP MM ALISON 1975-03-04 15:00:00 TS -16.7486 169.516 main 181 129 P_______PPP_P_ SH231975 -16.5500 169.250 -1 -17.0578 169.890 57 977 -16.5500 169.250 TC 65 -16.5705 169.269 4 -17.0149 169.922 TC 47 10 258
1975063S15168 1975 24 SP MM ALISON 1975-03-04 18:00:00 TS -16.8396 168.995 main 129 81 O_______POP_O_ jtwc_sh SH231975 -16.7000 168.800 -1 -17.0605 169.249 60 975 -16.7000 168.800 TC 65 -16.7377 168.828 4 -17.0000 169.300 TC 55 10 260
1975063S15168 1975 24 SP MM ALISON 1975-03-04 21:00:00 TS -16.9298 168.479 main 81 49 P_______PPP_P_ SH231975 -16.8650 168.378 -1 -17.0328 168.609 62 972 -16.8650 168.378 TC 65 -16.8861 168.397 4 -17.0001 168.635 TC 60 10 260
1975063S15168 1975 24 SP MM ALISON 1975-03-05 00:00:00 TS -17.0000 168.000 65 970 wellington main 49 44 O_______OOO_O_ jtwc_sh SH231975 -17.0000 168.000 -1 -17.0000 168.000 65 970 -17.0000 168.000 TC 65 -17.0000 168.000 4 -17.0000 168.000 TC 65 9 263
1975063S15168 1975 24 SP MM ALISON 1975-03-05 03:00:00 TS -17.0328 167.584 main 46 44 P_______PPP_P_ SH231975 -17.0724 167.685 -1 -16.9755 167.407 68 966 -17.0724 167.685 TC 65 -17.0442 167.668 4 -16.9997 167.478 TC 67 8 267
1975063S15168 1975 24 SP MM ALISON 1975-03-05 06:00:00 TS -17.0424 167.205 main 54 54 O_______POP_O_ jtwc_sh SH231975 -17.1000 167.400 -1 -16.9550 166.857 72 962 -17.1000 167.400 TC 65 -17.0569 167.369 4 -17.0000 167.000 TC 70 7 270
1975063S15168 1975 24 SP MM ALISON 1975-03-05 09:00:00 TS -17.0386 166.827 main 84 84 P_______PPP_P_ SH231975 -17.0924 167.107 -1 -16.9570 166.379 76 958 -17.0924 167.107 TC 65 -17.0661 167.086 4 -16.9851 166.455 TC 75 7 269
1975063S15168 1975 24 SP MM ALISON 1975-03-05 12:00:00 TS -17.0600 166.480 80 955 wellington main 117 117 O_______OOO_O_ jtwc_sh SH231975 -17.1000 166.800 -1 -17.0000 166.000 80 955 -17.1000 166.800 TC 65 -17.1000 166.800 4 -17.0000 166.000 TC 80 6 261
1975063S15168 1975 24 SP MM ALISON 1975-03-05 15:00:00 TS -17.1414 166.167 main 144 144 P_______PPP_P_ SH231975 -17.1775 166.450 -1 -17.0940 165.733 78 956 -17.1775 166.450 TC 65 -17.1882 166.462 4 -17.0698 165.740 TC 85 6 250
1975063S15168 1975 24 SP MM ALISON 1975-03-05 18:00:00 TS -17.2674 165.897 main 183 183 O_______POP_O_ jtwc_sh SH231975 -17.3000 166.100 -1 -17.2317 165.565 77 957 -17.3000 166.100 TC 65 -17.3052 166.120 4 -17.2000 165.600 TC 90 6 240
1975063S15168 1975 24 SP MM ALISON 1975-03-05 21:00:00 TS -17.4236 165.661 main 207 207 P_______PPP_P_ SH231975 -17.4425 165.785 -1 -17.4036 165.464 76 958 -17.4425 165.785 TC 65 -17.4445 165.793 4 -17.3850 165.478 TC 95 5 231
1975063S15168 1975 24 SP MM ALISON 1975-03-06 00:00:00 TS -17.6000 165.460 75 960 wellington main 236 236 O_______OOO_O_ jtwc_sh SH231975 -17.6000 165.500 -1 -17.6000 165.400 75 960 -17.6000 165.500 TC 65 -17.6000 165.500 4 -17.6000 165.400 TC 100 5 228
1975063S15168 1975 24 SP MM ALISON 1975-03-06 03:00:00 TS -17.7626 165.270 main 266 266 P_______PPP_P_ SH231975 -17.7425 165.227 -1 -17.7952 165.321 73 961 -17.7425 165.227 TC 65 -17.7402 165.232 4 -17.7925 165.342 TC 105 5 224
1975063S15168 1975 24 SP MM ALISON 1975-03-06 06:00:00 TS -17.9420 165.114 main 275 251 O_______POP_O_ jtwc_sh SH231975 -17.9000 165.000 -1 -18.0124 165.270 72 962 -17.9000 165.000 TC 65 -17.8974 165.003 4 -18.0000 165.300 TC 110 5 215
1975063S15168 1975 24 SP MM ALISON 1975-03-06 09:00:00 TS -18.1513 164.989 main 240 216 P_______PPP_P_ SH231975 -18.0925 164.820 -1 -18.2484 165.234 71 963 -18.0925 164.820 TC 65 -18.0809 164.822 4 -18.2425 165.250 TC 115 5 205
1975063S15168 1975 24 SP MM ALISON 1975-03-06 12:00:00 TS -18.3800 164.900 70 965 wellington main 216 192 O_______OOO_O_ jtwc_sh SH231975 -18.3000 164.700 -1 -18.5000 165.200 70 965 -18.3000 164.700 TC 65 -18.3000 164.700 4 -18.5000 165.200 TC 120 5 199
1975063S15168 1975 24 SP MM ALISON 1975-03-06 15:00:00 TS -18.5917 164.832 main 192 170 P_______PPP_P_ SH231975 -18.4700 164.620 -1 -18.7485 165.142 73 960 -18.4700 164.620 TC 65 -18.5274 164.630 4 -18.7425 165.150 TC 115 5 192
1975063S15168 1975 24 SP MM ALISON 1975-03-06 18:00:00 TS -18.8415 164.801 main 170 137 O_______POP_O_ jtwc_sh SH231975 -18.7000 164.600 -1 -19.0125 165.085 77 955 -18.7000 164.600 TC 65 -18.7949 164.617 4 -19.0000 165.100 TC 110 6 184
1975063S15168 1975 24 SP MM ALISON 1975-03-06 21:00:00 TS -19.1611 164.799 main 126 94 P_______PPP_P_ SH231975 -19.0550 164.635 -1 -19.2953 165.036 81 950 -19.0550 164.635 TC 65 -19.1149 164.646 4 -19.2850 165.043 TC 102 7 178
1975063S15168 1975 24 SP MM ALISON 1975-03-07 00:00:00 TS -19.5400 164.820 85 945 wellington main 94 54 O_______OOO_O_ jtwc_sh SH231975 -19.5000 164.700 -1 -19.6000 165.000 85 945 -19.5000 164.700 TC 65 -19.5000 164.700 4 -19.6000 165.000 TC 95 8 178
1975063S15168 1975 24 SP MM ALISON 1975-03-07 03:00:00 TS -19.9508 164.841 main 45 23 P_______PPP_P_ SH231975 -19.9775 164.743 -1 -19.8960 164.974 81 950 -19.9775 164.743 TC 65 -19.9604 164.753 4 -19.9425 164.992 TC 92 9 176
1975063S15168 1975 24 SP MM ALISON 1975-03-07 06:00:00 TS -20.4000 164.878 main 23 0 O_______POP_O_ jtwc_sh SH231975 -20.5000 164.800 -1 -20.2175 164.963 77 955 -20.5000 164.800 TC 65 -20.4826 164.827 4 -20.3000 165.000 TC 90 9 174
1975063S15168 1975 24 SP MM ALISON 1975-03-07 09:00:00 TS -20.8648 164.935 main 0 0 P_______PPP_P_ SH231975 -21.0425 164.900 -1 -20.5803 164.971 73 960 -21.0425 164.900 TC 65 -21.0385 164.913 4 -20.6200 164.993 TC 87 10 173
1975063S15168 1975 24 SP MM ALISON 1975-03-07 12:00:00 TS -21.3600 165.000 70 965 wellington main 0 0 O_______OOO_O_ jtwc_sh SH231975 -21.6000 165.000 -1 -21.0000 165.000 70 965 -21.6000 165.000 TC 65 -21.6000 165.000 4 -21.0000 165.000 TC 85 10 174
1975063S15168 1975 24 SP MM ALISON 1975-03-07 15:00:00 TS -21.8913 165.051 main 39 39 P_______PPP_P_ SH231975 -22.1575 165.050 -1 -21.4885 165.045 71 963 -22.1575 165.050 TC 65 -22.1331 165.075 4 -21.5200 165.035 TC 82 11 175
1975063S15168 1975 24 SP MM ALISON 1975-03-07 18:00:00 TS -22.4395 165.113 main 88 88 O_______POP_O_ jtwc_sh SH231975 -22.7000 165.100 -1 -22.0326 165.113 72 962 -22.7000 165.100 TC 65 -22.6650 165.150 4 -22.1000 165.100 TC 80 11 173
1975063S15168 1975 24 SP MM ALISON 1975-03-07 21:00:00 TS -22.9715 165.203 main 136 136 P_______PPP_P_ SH231975 -23.2075 165.200 -1 -22.6104 165.199 73 961 -23.2075 165.200 TC 65 -23.1894 165.225 4 -22.6425 165.193 TC 77 11 171
1975063S15168 1975 24 SP MM ALISON 1975-03-08 00:00:00 TS -23.5000 165.300 75 960 wellington main 175 175 O_______OOO_O_ jtwc_sh SH231975 -23.7000 165.300 -1 -23.2000 165.300 75 960 -23.7000 165.300 TC 65 -23.7000 165.300 4 -23.2000 165.300 TC 75 11 171
1975063S15168 1975 24 SP MM ALISON 1975-03-08 03:00:00 TS -24.0344 165.377 main 215 215 P_______PPP_P_ SH231975 -24.2075 165.350 -1 -23.7678 165.415 72 962 -24.2075 165.350 TC 65 -24.1893 165.375 4 -23.8000 165.393 TC 72 11 172
1975063S15168 1975 24 SP MM ALISON 1975-03-08 06:00:00 TS -24.5615 165.459 main 272 272 O_______POP_O_ jtwc_sh SH231975 -24.7000 165.400 -1 -24.3426 165.542 70 965 -24.7000 165.400 TC 65 -24.6650 165.450 4 -24.4000 165.500 TC 70 10 170
1975063S15168 1975 24 SP MM ALISON 1975-03-08 09:00:00 TS -25.0638 165.570 main 321 321 P_______PPP_P_ SH231975 -25.1575 165.500 -1 -24.9210 165.674 67 967 -25.1575 165.500 TC 65 -25.1331 165.525 4 -24.9500 165.650 TC 67 10 169
1975063S15168 1975 24 SP MM ALISON 1975-03-08 12:00:00 TS -25.5600 165.680 65 970 wellington main 371 371 O_______OOO_O_ jtwc_sh SH231975 -25.6000 165.600 -1 -25.5000 165.800 65 970 -25.6000 165.600 TC 65 -25.6000 165.600 4 -25.5000 165.800 TC 65 10 171
1975063S15168 1975 24 SP MM ALISON 1975-03-08 15:00:00 TS -26.0694 165.757 main 423 423 P_______PPP_P_ SH231975 -26.0425 165.650 -1 -26.0992 165.904 62 972 -26.0425 165.650 TC 65 -26.0628 165.675 4 -26.1000 165.908 TC 62 10 173
1975063S15168 1975 24 SP MM ALISON 1975-03-08 18:00:00 TS -26.5845 165.830 main 478 478 O_______POP_O_ jtwc_sh SH231975 -26.5000 165.700 -1 -26.6948 166.001 60 975 -26.5000 165.700 TC 65 -26.5275 165.750 4 -26.7000 166.000 TC 60 10 172
1975063S15168 1975 24 SP MM ALISON 1975-03-08 21:00:00 TS -27.1028 165.924 main 531 531 P_______PPP_P_ SH231975 -26.9850 165.800 -1 -27.2680 166.097 57 977 -26.9850 165.800 TC 65 -27.0034 165.825 4 -27.2725 166.100 TC 57 11 171
1975063S15168 1975 24 SP MM ALISON 1975-03-09 00:00:00 TS -27.6200 166.020 55 980 wellington main 585 585 O_______OOO_O_ jtwc_sh SH231975 -27.5000 165.900 -1 -27.8000 166.200 55 980 -27.5000 165.900 TC 65 -27.5000 165.900 4 -27.8000 166.200 TC 55 10 172
1975063S15168 1975 24 SP MM ALISON 1975-03-09 03:00:00 TS -28.1340 166.097 main 639 639 P_______PPP_P_ SH231975 -28.0425 165.950 -1 -28.2681 166.326 55 980 -28.0425 165.950 TC 65 -28.0446 165.963 4 -28.2725 166.293 TC 52 10 172
1975063S15168 1975 24 SP MM ALISON 1975-03-09 06:00:00 TS -28.6405 166.177 main 694 694 O_______POP_O_ jtwc_sh SH231975 -28.6000 166.000 -1 -28.6950 166.458 55 980 -28.6000 166.000 TC 65 -28.6074 166.028 4 -28.7000 166.400 TC 50 10 171
1975063S15168 1975 24 SP MM ALISON 1975-03-09 09:00:00 TS -29.1392 166.286 main 749 749 P_______PPP_P_ SH231975 -29.1650 166.092 -1 -29.0994 166.585 55 980 -29.1650 166.092 TC 65 -29.1665 166.104 4 -29.1000 166.557 TC 47 10 169
1975063S15168 1975 24 SP MM ALISON 1975-03-09 12:00:00 TS -29.6200 166.400 55 980 wellington main 799 761 O_______OOO_O_ jtwc_sh SH231975 -29.7000 166.200 -1 -29.5000 166.700 55 980 -29.7000 166.200 TC 65 -29.7000 166.200 4 -29.5000 166.700 TC 45 9 170
1975063S15168 1975 24 SP MM ALISON 1975-03-09 15:00:00 TS -30.0618 166.466 main 753 724 P_______PPP_P_ SH231975 -30.1649 166.285 -1 -29.9123 166.743 55 980 -30.1649 166.285 TC 65 -30.1169 166.260 4 -29.9500 166.758 TC 45 9 172
1975063S15168 1975 24 SP MM ALISON 1975-03-09 18:00:00 TS -30.4885 166.546 main 724 681 O_______POP_O_ jtwc_sh SH231975 -30.6000 166.400 -1 -30.3267 166.779 55 980 -30.6000 166.400 TC 65 -30.5158 166.350 4 -30.4000 166.800 TC 45 9 169
1975063S15168 1975 24 SP MM ALISON 1975-03-09 21:00:00 TS -30.8948 166.662 main 681 639 P_______PPP_P_ SH231975 -30.9897 166.541 -1 -30.7527 166.850 55 980 -30.9897 166.541 TC 65 -30.9569 166.515 4 -30.7849 166.863 TC 45 9 162
1975063S15168 1975 24 SP MM ALISON 1975-03-10 00:00:00 TS -31.3800 166.880 55 980 wellington main 633 573 O_______OOO_O_ jtwc_sh SH231975 -31.5000 166.800 -1 -31.2000 167.000 55 980 -31.5000 166.800 TC 65 -31.5000 166.800 4 -31.2000 167.000 TC 45 13 157
1975063S15168 1975 24 SP MM ALISON 1975-03-10 03:00:00 TS -32.0719 167.244 main 567 490 P_______PPP_P_ SH231975 -32.2974 167.225 -1 -31.6909 167.275 55 980 -32.2974 167.225 TC 65 -32.3315 167.245 4 -31.7424 167.247 TC 45 16 154
1975063S15168 1975 24 SP MM ALISON 1975-03-10 06:00:00 TS -32.8297 167.732 main 490 410 O_______POP_O_ jtwc_sh SH231975 -33.2000 167.800 -1 -32.2003 167.636 55 980 -33.2000 167.800 TC 65 -33.2483 167.822 4 -32.3000 167.600 TC 45 17 149
1975063S15168 1975 24 SP MM ALISON 1975-03-10 09:00:00 TS -33.5615 168.298 main 407 342 P_______PPP_P_ SH231975 -34.1049 168.461 -1 -32.7095 168.054 55 980 -34.1049 168.461 TC 65 -34.1158 168.488 4 -32.7725 168.028 TC 42 17 143
1975063S15168 1975 24 SP MM ALISON 1975-03-10 12:00:00 TS -34.1600 168.920 55 980 wellington main 340 283 O_______OOO_O_ jtwc_sh SH231975 -34.8000 169.200 -1 -33.2000 168.500 55 980 -34.8000 169.200 TC 65 -34.8000 169.200 4 -33.2000 168.500 TC 40 14 132
1975063S15168 1975 24 SP MM ALISON 1975-03-10 15:00:00 TS -34.4953 169.559 main 274 220 P_______PPP_P_ SH231975 -35.0549 169.960 -1 -33.6715 168.964 55 980 -35.0549 169.960 TC 65 -35.0956 169.960 4 -33.5998 168.951 TC 40 12 117
1975063S15168 1975 24 SP MM ALISON 1975-03-10 18:00:00 TS -34.7043 170.195 main 220 170 O_______POP_O_ jtwc_sh SH231975 -35.1000 170.700 -1 -34.1184 169.444 55 980 -35.1000 170.700 TC 65 -35.2029 170.730 4 -34.0000 169.400 TC 40 11 112
1975063S15168 1975 24 SP MM ALISON 1975-03-10 21:00:00 TS -34.9184 170.810 main 170 136 P_______PPP_P_ SH231975 -35.1776 171.418 -1 -34.5310 169.901 55 980 -35.1776 171.418 TC 65 -35.2333 171.434 4 -34.4726 169.880 TC 45 10 115
1975063S15168 1975 24 SP MM ALISON 1975-03-11 00:00:00 TS -35.1400 171.320 55 980 wellington main 136 126 O_______OOO_O_ jtwc_sh SH231975 -35.3000 172.000 -1 -34.9000 170.300 55 980 -35.3000 172.000 TC 65 -35.3000 172.000 4 -34.9000 170.300 TC 50 9 125
1975063S15168 1975 24 SP MM ALISON 1975-03-11 03:00:00 TS -35.4068 171.672 main 129 122 P_______PPP_P_ SH231975 -35.5620 172.382 -1 -35.1930 170.628 55 980 -35.5620 172.382 TC 65 -35.5449 172.380 4 -35.1722 170.588 TC 42 7 140
1975063S15168 1975 24 SP MM ALISON 1975-03-11 06:00:00 TS -35.6998 171.901 main 125 121 O_______POP_O_ jtwc_sh SH231975 -35.9000 172.600 -1 -35.4492 170.887 55 980 -35.9000 172.600 TC 65 -35.8499 172.617 4 -35.4000 170.800 TC 35 7 152
1975063S15168 1975 24 SP MM ALISON 1975-03-11 09:00:00 TS -36.0086 172.066 main 126 126 P_______PPP_P_ SH231975 -36.2274 172.738 -1 -35.7058 171.077 55 980 -36.2274 172.738 TC 65 -36.2051 172.746 4 -35.6775 171.030 TC 35 7 163
1975063S15168 1975 24 SP MM ALISON 1975-03-11 12:00:00 TS -36.3600 172.160 55 980 wellington main 146 146 O_______OOO_O_ jtwc_sh SH231975 -36.6000 172.800 -1 -36.0000 171.200 55 980 -36.6000 172.800 TC 65 -36.6000 172.800 4 -36.0000 171.200 TC 35 8 169
1975063S15168 1975 24 SP MM ALISON 1975-03-11 15:00:00 TS -36.7644 172.247 main 173 165 P_______PPP_P_ SH231975 -37.0350 172.880 -1 -36.3815 171.293 55 980 -37.0350 172.880 TC 65 -36.9932 172.895 4 -36.3774 171.288 TC 35 9 174
1975063S15168 1975 24 SP MM ALISON 1975-03-11 18:00:00 TS -37.2057 172.268 main 183 183 O_______POP_O_ jtwc_sh SH231975 -37.5000 172.900 -1 -36.8046 171.320 55 980 -37.5000 172.900 TC 65 -37.4241 172.919 4 -36.8000 171.300 TC 35 9 0
1975063S15168 1975 24 SP MM ALISON 1975-03-11 21:00:00 TS -37.6511 172.229 main 213 198 P_______PPP_P_ SH231975 -37.9348 172.859 -1 -37.2503 171.287 55 980 -37.9348 172.859 TC 65 -37.8930 172.859 4 -37.2425 171.280 TC 35 9 188
1975063S15168 1975 24 SP MM ALISON 1975-03-12 00:00:00 TS -38.1200 172.100 55 980 wellington main 198 181 O_______OOO_O_ jtwc_sh SH231975 -38.4000 172.700 -1 -37.7000 171.200 55 980 -38.4000 172.700 TC 65 -38.4000 172.700 4 -37.7000 171.200 TC 35 10 196
1975063S15168 1975 24 SP MM ALISON 1975-03-12 03:00:00 TS -38.6254 171.874 main 181 173 P_______PPP_P_ SH231975 -38.9276 172.395 -1 -38.1384 171.068 55 980 -38.9276 172.395 TC 65 -38.9759 172.441 4 -38.1575 171.073 TC 35 11 198
1975063S15168 1975 24 SP MM ALISON 1975-03-12 06:00:00 TS -39.2121 171.651 main 173 131 O_______POP_O_ jtwc_sh SH231975 -39.5000 172.000 -1 -38.5655 170.900 55 980 -39.5000 172.000 TC 65 -39.5804 172.082 4 -38.6000 170.900 TC 35 13 197
1975063S15168 1975 24 SP MM ALISON 1975-03-12 09:00:00 TS -39.8567 171.398 main 122 93 P_______PPP_P_ SH231975 -40.1299 171.615 -1 -38.9848 170.707 55 980 -40.1299 171.615 TC 65 -40.1696 171.656 4 -39.0101 170.705 TC 35 14 198
1975063S15168 1975 24 SP MM ALISON 1975-03-12 12:00:00 TS -40.5143 171.100 55 980 wellington main 95 90 O_______OOO_O_ jtwc_sh SH231975 -40.7000 171.200 -1 -39.4000 170.500 55 980 -40.7000 171.200 TC 65 -40.7000 171.200 4 -39.4000 170.500 TC 35 13 202
1975063S15168 1975 24 SP MM ALISON 1975-03-12 15:00:00 TS -41.0705 170.767 main 97 94 P________PP___ SH231975 -41.0874 170.756 -1 -41.0874 170.756 TC 65 -41.0368 170.788 4 TC 10 214
1975063S15168 1975 24 SP MM ALISON 1975-03-12 18:00:00 TS -41.3746 170.318 main 108 108 O________OP___ jtwc_sh SH231975 -41.4000 170.300 -1 -41.4000 170.300 TC 65 -41.3238 170.355 4 9 228
1975063S15168 1975 24 SP MM ALISON 1975-03-12 21:00:00 TS -41.6811 169.874 main 128 128 P________PP___ SH231975 -41.6972 169.863 -1 -41.6972 169.863 TC 65 -41.6490 169.895 4 10 223
1975063S15168 1975 24 SP MM ALISON 1975-03-13 00:00:00 TS -42.1000 169.400 main 138 106 O________OO___ jtwc_sh SH231975 -42.1000 169.400 -1 -42.1000 169.400 TC 65 -42.1000 169.400 4 13 216
1975063S15168 1975 24 SP MM ALISON 1975-03-13 03:00:00 TS -42.7201 168.873 main 106 64 P________PP___ SH231975 -42.7098 168.879 -1 -42.7098 168.879 TC 65 -42.7409 168.860 4 16 210
1975063S15168 1975 24 SP MM ALISON 1975-03-13 06:00:00 TS -43.5136 168.292 main 64 13 O________OP___ jtwc_sh SH231975 -43.5000 168.300 -1 -43.5000 168.300 TC 65 -43.5409 168.277 4 19 207
1975063S15168 1975 24 SP MM ALISON 1975-03-13 09:00:00 TS -44.4274 167.665 main 13 0 P________PP___ SH231975 -44.4183 167.670 -1 -44.4183 167.670 TC 65 -44.4456 167.654 4 21 206
1975063S15168 1975 24 SP MM ALISON 1975-03-13 12:00:00 TS -45.4000 167.000 main 0 O________OO___ jtwc_sh SH231975 -45.4000 167.000 -1 -45.4000 167.000 TC 65 -45.4000 167.000 4 22 206

Digital Typhoon Data and Search

About IBTrACS Database

This database is a web-friendly format of International Best Track Archive for Climate Stewardship (IBTrACS), a global best track data archive curated by NOAA dating back to 1842.

Updated: 2021-12-06